Ride Results

Dergholm Day 2 (04-11-2012)
Ride distance: 80.0 km

Outcomes - Dergholm Day 2 (04-11-2012)
Division No. of Entries Retired / DNE Completed Withdrawn Ineligible V/O Percentage Completed
HW 9 - 9 - - - 100.00%
MW 11 - 10 - - 1 90.91%
LW 8 - 8 - - - 100.00%
JN 2 - 1 1 - - 50.00%
Totals 30 - 28 1 - 1 93.33%
Results - Dergholm Day 2 (04-11-2012)
No. Rider Horse Place Time Leg Speeds Total
Km/Hr
H/R bpm
Heavyweight
82 Jarrod Robinson Julian 1 (BC) 4:27:00 19.0, 17.0 17.98 36, 47, 60 (Avg:53)
35 Mark Shillabeer Sandine Phoenix 2 4:50:00 14.9, 18.6 16.55 47, 48, 54 (Avg:51)
308 Melissa Cawthan Taylorsglen Renegade 3 5:08:00 18.6, 13.4 15.58 41, 52, 53 (Avg:52)
150 Jody Smith Tarjo Ace of Hearts 4 6:06:59 13.2, 12.9 13.08 37, 48, 50 (Avg:49)
135 Tamara Atkinson Coolinda Park Outtfoxxed 5 6:07:00 13.2, 12.9 13.08 42, 52, 58 (Avg:55)
115 Rod Mills Bushmans Bluff 6 6:17:00 13.4, 12.1 12.73 32, 42, 49 (Avg:45)
231 Tim Wall Musical Gully Samba 7 6:33:00 12.7, 11.7 12.21 31, 44, 59 (Avg:51)
337 Allison Whitney Nile Neferseti 7 6:33:00 12.7, 11.7 12.21 32, 38, 46 (Avg:42)
750 Wendy Lightowler Kalatha Park Shahraz 9 7:13:00 13.0, 9.6 11.09 40, 48, 59 (Avg:53)
Middleweight
405 Jil Bourton Veloce Liberty 1 (BC) 4:27:00 19.0, 17.0 17.98 44, 49, 45 (Avg:47)
42 Hans Peuker Marybank Celia 2 5:09:00 18.6, 13.3 15.53 33, 46, 50 (Avg:48)
44 Vanessa Smith Dunbraeton Narla 3 5:11:00 18.1, 13.4 15.43 35, 48, 49 (Avg:48)
89 Sheryl Herbert Krishlah Maleeka 4 5:29:00 16.5, 13.0 14.59 37, 42, 42 (Avg:42)
175 Dianne Leehane Tarara Malone 4 5:29:00 16.5, 13.0 14.59 33, 45, 52 (Avg:48)
149 Bob Masters Sharwood Sinai 4 5:29:00 14.8, 14.3 14.59 30, 41, 42 (Avg:41)
37 Kimberley Measham Mill Park Hale 7 6:12:00 12.9, 12.8 12.90 38, 42, 52 (Avg:47)
142 Jan Scholes Dunbraeton Omar 8 6:33:00 12.7, 11.7 12.21 37, 43, 54 (Avg:48)
131 Simon Thomas Morundah Just Sharii 9 6:46:00 12.6, 11.1 11.82 34, 40, 58 (Avg:49)
755 Jessica Remfry Music Maker 10 8:12:00 10.3, 9.2 9.76 42, 43, 44 (Avg:43)
300 Sue Baillie Cavanagh Felix Lame L2 0:00:00 18.6, 19.0 - 48, 44, 43 (Avg:43)
Lightweight
8 Jane McLaughlin Syrahbia 1 5:55:00 14.8, 12.4 13.52 45, 43, 52 (Avg:47)
22 Sarah McLaughlin Elphyn Shafyre 1 (BC) 5:55:00 14.8, 12.4 13.52 35, 41, 45 (Avg:43)
61 Lois Sharam Musical Gully Carousel 3 6:17:00 13.4, 12.1 12.73 36, 42, 56 (Avg:49)
114 Helen Spencer Imoan Party Girl 3 6:17:00 13.4, 12.1 12.73 55, 56 (Avg:55)
183 Nicky Robinson Sterling Nakeeta 5 6:31:00 14.8, 10.4 12.28 39, 42, 40 (Avg:41)
161 Shannon Decker Rocky Point White Diamond 6 6:46:00 12.6, 11.1 11.82 38, 42, 48 (Avg:45)
151 Kasey Thomas Rocky Point Blue Kyanite 6 6:46:00 12.6, 11.1 11.82 36, 44, 48 (Avg:46)
208 Janeen Smith Slipstream Shalom 8 8:12:00 10.3, 9.2 9.76 34, 46, 47 (Avg:46)
Junior
255 Alannah Luck Abbeywood Angel 1 (BC) 6:07:00 13.2, 12.9 13.08 37, 38, 42 (Avg:40)
740 Danielle Griffin Castle Downs Challenge Withdrawn L1 0:00:00 - - 43, 42 (Avg:42)